Time;durP1;ratioP1;P1;durP2;ratioP2;P2;SDS_P1;SDS_P2;PMS_P1;PMS_P2;Temp;Humidity;BMP_temperature;BMP_pressure;BME280_temperature;BME280_humidity;BME280_pressure;Samples;Min_cycle;Max_cycle;Signal;HPM_P1;HPM_P2
2021/09/08 00:02:16;;;;;;;9.20;5.45;;;;;;;18.38;50.22;100482.69;5130801;28;20051;-84
2021/09/08 00:04:43;;;;;;;7.82;5.10;;;;;;;18.31;50.35;100471.75;5137165;28;20463;-84
2021/09/08 00:07:10;;;;;;;7.68;4.95;;;;;;;18.26;50.84;100477.41;5117424;28;20099;-84
2021/09/08 00:09:37;;;;;;;6.15;5.15;;;;;;;18.28;50.63;100475.50;5112952;28;20052;-85
2021/09/08 00:12:04;;;;;;;13.50;5.57;;;;;;;18.42;49.79;100470.91;5113250;28;20075;-84
2021/09/08 00:14:32;;;;;;;8.02;4.75;;;;;;;18.31;49.90;100475.22;5112241;28;20478;-85
2021/09/08 00:16:59;;;;;;;7.40;5.70;;;;;;;18.30;50.22;100470.09;5112944;28;20122;-85
2021/09/08 00:19:27;;;;;;;6.50;5.80;;;;;;;18.30;50.24;100464.81;5112376;28;20584;-85
2021/09/08 00:21:54;;;;;;;6.90;6.05;;;;;;;18.41;50.09;100464.78;5113334;28;20172;-85
2021/09/08 00:24:21;;;;;;;7.55;5.25;;;;;;;18.35;50.78;100465.28;5112453;28;20100;-84
2021/09/08 00:26:48;;;;;;;10.40;5.68;;;;;;;18.29;50.23;100465.78;5112905;28;20047;-85
2021/09/08 00:29:14;;;;;;;8.32;6.50;;;;;;;18.40;50.51;100470.22;5112691;28;20047;-86
2021/09/08 00:31:41;;;;;;;8.15;5.32;;;;;;;18.24;51.06;100467.94;5113578;28;20032;-86
2021/09/08 00:34:09;;;;;;;7.22;5.88;;;;;;;18.11;51.14;100469.84;5113932;28;20047;-84
2021/09/08 00:36:36;;;;;;;10.77;5.05;;;;;;;18.05;51.09;100465.88;5116358;28;20035;-84
2021/09/08 00:39:03;;;;;;;6.30;5.70;;;;;;;18.02;51.36;100471.41;5114758;28;20512;-83
2021/09/08 00:41:32;;;;;;;9.82;5.15;;;;;;;17.99;51.73;100467.19;5115943;28;20386;-84
2021/09/08 00:44:10;;;;;;;12.13;5.90;;;;;;;17.97;52.67;100474.41;5116348;28;20047;-86
2021/09/08 00:46:39;;;;;;;8.45;6.20;;;;;;;17.91;52.33;100474.03;5116188;28;20063;-86
2021/09/08 00:49:06;;;;;;;6.57;5.88;;;;;;;17.82;52.76;100470.31;5116148;28;20047;-86
2021/09/08 00:51:34;;;;;;;6.32;5.43;;;;;;;17.77;52.94;100470.66;5116155;28;20228;-86
2021/09/08 00:54:05;;;;;;;9.68;6.30;;;;;;;17.74;53.26;100463.00;5116443;28;20032;-86
2021/09/08 00:56:35;;;;;;;12.05;5.60;;;;;;;17.70;53.30;100461.50;5115845;27;20048;-85
2021/09/08 00:59:03;;;;;;;7.22;6.05;;;;;;;17.67;53.34;100466.16;5116218;28;20047;-84
2021/09/08 01:01:33;;;;;;;7.07;5.25;;;;;;;17.61;53.57;100467.47;5115508;28;20494;-85
2021/09/08 01:04:03;;;;;;;6.63;5.68;;;;;;;17.70;53.24;100466.78;5116347;28;20039;-85
2021/09/08 01:06:32;;;;;;;7.53;6.28;;;;;;;17.72;53.56;100464.88;5115602;28;20084;-85
2021/09/08 01:09:04;;;;;;;13.15;6.18;;;;;;;17.74;53.77;100467.44;5115642;28;20048;-84
2021/09/08 01:11:33;;;;;;;10.75;6.45;;;;;;;17.70;53.88;100472.06;5109239;28;20127;-85
2021/09/08 01:14:01;;;;;;;8.18;6.80;;;;;;;17.69;53.13;100470.38;5115516;28;20401;-85
2021/09/08 01:16:29;;;;;;;8.88;6.60;;;;;;;17.70;52.93;100468.56;5115632;28;20074;-85
2021/09/08 01:18:56;;;;;;;7.00;5.40;;;;;;;17.86;51.44;100470.91;5115412;28;20051;-86
2021/09/08 01:21:22;;;;;;;8.43;5.10;;;;;;;18.16;50.66;100476.44;5115592;28;20043;-85
2021/09/08 01:23:49;;;;;;;11.43;7.30;;;;;;;18.28;51.85;100479.94;5107641;28;20074;-85
2021/09/08 01:26:16;;;;;;;11.40;7.18;;;;;;;17.82;54.00;100480.84;5096968;28;20036;-86
2021/09/08 01:28:43;;;;;;;11.57;7.97;;;;;;;17.53;54.99;100478.59;5115286;28;20065;-85
2021/09/08 01:31:09;;;;;;;10.57;8.05;;;;;;;17.50;55.57;100477.97;5115242;28;20048;-86
2021/09/08 01:33:36;;;;;;;10.70;7.72;;;;;;;17.44;55.57;100483.72;5115192;28;20093;-85
2021/09/08 01:36:03;;;;;;;9.18;7.45;;;;;;;17.44;55.66;100479.28;5094965;28;20044;-86
2021/09/08 01:38:30;;;;;;;9.07;6.30;;;;;;;17.48;55.94;100487.81;5095115;28;20040;-87
2021/09/08 01:40:57;;;;;;;6.80;5.97;;;;;;;17.42;55.88;100485.63;5094822;28;20044;-85
2021/09/08 01:43:25;;;;;;;8.35;6.97;;;;;;;17.38;56.27;100485.03;5094616;28;20044;-86
2021/09/08 01:45:52;;;;;;;10.00;7.28;;;;;;;17.35;56.62;100489.66;5108637;28;20103;-84
2021/09/08 01:48:20;;;;;;;15.50;7.88;;;;;;;17.27;56.71;100490.25;5131096;28;20023;-85
2021/09/08 01:50:47;;;;;;;8.93;7.90;;;;;;;17.28;57.25;100484.03;5134686;28;20031;-84
2021/09/08 01:53:14;;;;;;;7.68;6.35;;;;;;;17.31;57.19;100485.56;5130031;28;20383;-84
2021/09/08 01:55:41;;;;;;;8.18;6.22;;;;;;;17.23;56.88;100473.81;5115025;28;20039;-85
2021/09/08 01:58:11;;;;;;;9.60;6.57;;;;;;;17.13;57.38;100472.81;5106225;28;20054;-85
2021/09/08 02:00:37;;;;;;;9.48;6.05;;;;;;;17.18;56.85;100477.75;5115329;28;20493;-85
2021/09/08 02:03:05;;;;;;;6.47;5.38;;;;;;;17.05;56.96;100469.09;5115201;28;20090;-84
2021/09/08 02:05:32;;;;;;;6.80;6.03;;;;;;;16.97;56.47;100467.84;5115276;28;20044;-86
2021/09/08 02:07:59;;;;;;;6.43;5.82;;;;;;;16.88;56.52;100467.66;5114603;28;20367;-85
2021/09/08 02:10:25;;;;;;;10.23;6.07;;;;;;;16.85;56.52;100474.00;5114745;28;20139;-85
2021/09/08 02:12:54;;;;;;;10.00;6.18;;;;;;;16.76;56.68;100480.75;5110980;28;20032;-85
2021/09/08 02:15:20;;;;;;;5.97;5.00;;;;;;;16.75;56.52;100476.44;5094261;28;20044;-85
2021/09/08 02:17:47;;;;;;;7.38;5.38;;;;;;;16.76;56.51;100478.13;5093830;28;20048;-86
2021/09/08 02:20:14;;;;;;;11.75;6.63;;;;;;;16.72;56.55;100474.06;5113677;28;20043;-85
2021/09/08 02:22:41;;;;;;;17.50;5.30;;;;;;;16.57;57.47;100480.38;5114656;28;20044;-86
2021/09/08 02:25:08;;;;;;;6.47;5.63;;;;;;;16.50;57.66;100479.13;5114346;28;20515;-85
2021/09/08 02:27:35;;;;;;;6.40;5.53;;;;;;;16.45;57.74;100478.59;5114688;28;20409;-85
2021/09/08 02:30:03;;;;;;;8.98;5.68;;;;;;;16.34;57.80;100479.34;5112679;28;20130;-86
2021/09/08 02:32:30;;;;;;;8.30;5.47;;;;;;;16.28;58.06;100468.44;5113328;28;20478;-86
2021/09/08 02:34:57;;;;;;;8.27;5.30;;;;;;;16.23;57.94;100474.00;5114064;28;20130;-83
2021/09/08 02:37:24;;;;;;;11.65;5.43;;;;;;;16.18;58.07;100468.22;5113409;28;20035;-85
2021/09/08 02:39:50;;;;;;;9.13;6.03;;;;;;;16.14;58.08;100467.63;5113189;28;20069;-85
2021/09/08 02:42:18;;;;;;;9.25;5.55;;;;;;;16.07;58.50;100468.97;5114533;28;20035;-86
2021/09/08 02:44:44;;;;;;;7.53;5.72;;;;;;;16.01;58.67;100465.94;5113596;28;20035;-86
2021/09/08 02:47:12;;;;;;;10.50;5.38;;;;;;;15.94;59.10;100473.41;5113806;28;20478;-85
2021/09/08 02:49:39;;;;;;;10.55;5.90;;;;;;;15.88;59.34;100471.22;5113701;28;20044;-83
2021/09/08 02:52:06;;;;;;;10.95;6.15;;;;;;;15.84;59.81;100473.19;5113020;28;20046;-85
2021/09/08 02:54:32;;;;;;;8.20;5.72;;;;;;;15.81;60.02;100469.91;5113938;28;20516;-86
2021/09/08 02:56:59;;;;;;;7.60;6.22;;;;;;;15.68;60.65;100476.03;5112998;28;20521;-86
2021/09/08 02:59:26;;;;;;;7.68;6.82;;;;;;;15.53;61.21;100474.38;5112643;28;20043;-86
2021/09/08 03:01:53;;;;;;;9.18;8.20;;;;;;;15.64;61.28;100471.06;5113873;28;20044;-87
2021/09/08 03:04:21;;;;;;;11.23;8.02;;;;;;;15.76;61.23;100467.59;5113510;28;20039;-86
2021/09/08 03:06:49;;;;;;;11.05;8.05;;;;;;;15.86;60.99;100476.53;5113415;28;20036;-87
2021/09/08 03:09:16;;;;;;;25.05;8.10;;;;;;;15.86;60.83;100470.44;5112441;28;20175;-86
2021/09/08 03:11:43;;;;;;;8.90;7.63;;;;;;;15.95;60.52;100469.81;5113797;28;20077;-87
2021/09/08 03:14:10;;;;;;;12.30;7.13;;;;;;;15.87;60.28;100475.63;5114001;28;20048;-86
2021/09/08 03:16:37;;;;;;;13.82;7.35;;;;;;;15.94;60.38;100469.00;5113356;28;20114;-85
2021/09/08 03:19:03;;;;;;;12.77;6.72;;;;;;;15.95;60.50;100467.19;5113926;28;20135;-84
2021/09/08 03:21:30;;;;;;;9.40;6.88;;;;;;;16.10;59.78;100470.56;5113829;28;20047;-84
2021/09/08 03:23:57;;;;;;;10.82;7.60;;;;;;;16.27;59.67;100461.50;5113279;28;20110;-84
2021/09/08 03:26:24;;;;;;;10.07;7.03;;;;;;;16.13;59.78;100468.53;5113558;28;20032;-85
2021/09/08 03:28:51;;;;;;;9.13;7.00;;;;;;;16.17;59.83;100467.38;5113282;28;20043;-86
2021/09/08 03:31:17;;;;;;;12.38;6.80;;;;;;;16.23;59.56;100461.69;5113709;28;20040;-84
2021/09/08 03:33:44;;;;;;;11.73;7.85;;;;;;;16.30;59.36;100470.03;5113206;28;20040;-84
2021/09/08 03:36:11;;;;;;;10.70;7.53;;;;;;;16.41;59.36;100462.22;5113376;28;20478;-84
2021/09/08 03:38:38;;;;;;;12.15;8.45;;;;;;;16.33;59.52;100463.69;5112964;28;20089;-85
2021/09/08 03:41:09;;;;;;;11.07;7.85;;;;;;;16.39;60.35;100461.47;5114016;28;20050;-86
2021/09/08 03:43:36;;;;;;;10.52;7.68;;;;;;;16.43;59.21;100459.47;5113556;28;20040;-86
2021/09/08 03:46:08;;;;;;;11.98;7.90;;;;;;;16.37;59.45;100463.38;5114016;28;20036;-85
2021/09/08 03:48:35;;;;;;;9.75;7.53;;;;;;;16.55;58.98;100461.22;5114359;28;20083;-85
2021/09/08 03:51:02;;;;;;;9.80;7.30;;;;;;;16.56;59.08;100457.63;5113318;28;20089;-85
2021/09/08 03:53:28;;;;;;;9.38;7.13;;;;;;;16.54;58.80;100463.97;5112071;28;20040;-86
2021/09/08 03:55:55;;;;;;;10.18;8.35;;;;;;;16.53;59.00;100467.53;5113032;28;20032;-86
2021/09/08 03:58:22;;;;;;;12.40;7.82;;;;;;;16.59;58.82;100462.69;5113338;28;20048;-87
2021/09/08 04:00:49;;;;;;;10.77;7.75;;;;;;;16.65;58.61;100469.28;5113212;28;20039;-85
2021/09/08 04:03:16;;;;;;;10.68;6.88;;;;;;;16.52;59.07;100458.81;5113547;28;20040;-85
2021/09/08 04:05:43;;;;;;;13.05;6.88;;;;;;;16.54;59.07;100463.97;5112903;28;20043;-85
2021/09/08 04:08:10;;;;;;;9.60;6.47;;;;;;;16.60;59.00;100466.97;5114756;28;20555;-85
2021/09/08 04:10:37;;;;;;;11.38;6.47;;;;;;;16.46;59.51;100461.88;5115900;28;20522;-85
2021/09/08 04:13:03;;;;;;;8.70;5.55;;;;;;;16.50;59.54;100464.16;5117330;28;20051;-85
2021/09/08 04:15:30;;;;;;;13.52;6.38;;;;;;;16.58;58.92;100466.28;5116955;28;20535;-86
2021/09/08 04:17:58;;;;;;;8.18;6.47;;;;;;;16.61;58.90;100457.28;5116775;28;20386;-86
2021/09/08 04:20:25;;;;;;;10.32;8.07;;;;;;;16.66;58.69;100460.44;5117091;28;20081;-85
2021/09/08 04:22:52;;;;;;;10.52;6.50;;;;;;;16.71;57.96;100453.09;5116506;28;20044;-85
2021/09/08 04:25:18;;;;;;;7.45;6.07;;;;;;;16.75;57.78;100463.28;5114580;28;20040;-85
2021/09/08 04:27:45;;;;;;;10.65;6.05;;;;;;;16.68;57.98;100459.41;5115391;28;20435;-85
2021/09/08 04:30:12;;;;;;;13.38;6.93;;;;;;;16.67;58.49;100456.84;5116684;28;20482;-85
2021/09/08 04:32:39;;;;;;;6.68;5.75;;;;;;;16.68;57.97;100456.75;5116928;28;20486;-86
2021/09/08 04:35:06;;;;;;;8.00;6.30;;;;;;;16.73;58.02;100456.47;5116791;28;20084;-85
2021/09/08 04:37:36;;;;;;;8.38;5.90;;;;;;;16.77;57.91;100456.09;5117338;28;20085;-85
2021/09/08 04:40:05;;;;;;;12.73;6.35;;;;;;;16.92;57.79;100464.69;5116312;28;20164;-85
2021/09/08 04:42:32;;;;;;;9.02;5.90;;;;;;;16.98;57.14;100463.41;5116693;28;20100;-84
2021/09/08 04:44:58;;;;;;;7.97;6.57;;;;;;;16.99;56.84;100459.81;5109445;28;20625;-83
2021/09/08 04:47:25;;;;;;;6.53;5.88;;;;;;;17.18;56.61;100464.56;5116638;28;20363;-87
2021/09/08 04:49:52;;;;;;;11.70;6.00;;;;;;;17.09;56.50;100460.81;5108088;28;20063;-86
2021/09/08 04:52:19;;;;;;;8.98;5.55;;;;;;;17.05;56.61;100464.66;5111052;28;20044;-85
2021/09/08 04:54:45;;;;;;;8.68;6.40;;;;;;;16.98;57.41;100461.59;5115618;28;20135;-86
2021/09/08 04:57:12;;;;;;;6.47;5.75;;;;;;;16.93;57.30;100466.38;5115796;28;20483;-85
2021/09/08 04:59:39;;;;;;;8.35;6.57;;;;;;;16.90;57.40;100466.59;5115233;28;20060;-84
2021/09/08 05:02:06;;;;;;;6.93;5.75;;;;;;;17.00;57.26;100470.25;5115719;28;20101;-88
2021/09/08 05:04:33;;;;;;;7.30;5.85;;;;;;;17.04;57.23;100470.84;5116325;28;20044;-87
2021/09/08 05:06:59;;;;;;;15.45;6.50;;;;;;;17.11;56.94;100474.72;5117336;28;20093;-94
2021/09/08 05:09:28;;;;;;;8.15;6.18;;;;;;;17.13;56.99;100475.44;5114219;28;20105;-79
2021/09/08 05:11:55;;;;;;;5.80;5.30;;;;;;;17.06;57.51;100471.59;5103229;28;20089;-80
2021/09/08 05:14:22;;;;;;;12.98;6.20;;;;;;;16.92;58.09;100467.31;5105569;28;20094;-78
2021/09/08 05:16:49;;;;;;;7.95;5.72;;;;;;;17.12;57.50;100465.88;5109380;27;20043;-78
2021/09/08 05:19:15;;;;;;;12.57;7.50;;;;;;;17.41;56.82;100473.41;5111604;27;20047;-81
2021/09/08 05:21:42;;;;;;;12.20;7.30;;;;;;;17.55;56.33;100463.50;5107094;28;20035;-83
2021/09/08 05:24:09;;;;;;;7.80;5.50;;;;;;;17.66;55.74;100462.69;5113530;28;20467;-82
2021/09/08 05:26:35;;;;;;;12.52;6.57;;;;;;;17.79;55.29;100474.03;5108215;27;20065;-80
2021/09/08 05:29:03;;;;;;;11.38;5.50;;;;;;;17.77;55.70;100470.66;5108681;27;20040;-82
2021/09/08 05:31:30;;;;;;;8.13;5.95;;;;;;;18.08;55.17;100464.81;5107726;28;20036;-80
2021/09/08 05:33:56;;;;;;;7.53;5.63;;;;;;;18.23;54.71;100471.53;5109222;28;20116;-84
2021/09/08 05:36:23;;;;;;;7.85;5.57;;;;;;;18.41;54.10;100472.72;5114181;28;20040;-82
2021/09/08 05:38:50;;;;;;;6.78;5.72;;;;;;;18.51;53.94;100472.84;5111850;28;20063;-79
2021/09/08 05:41:17;;;;;;;7.55;5.65;;;;;;;18.92;52.88;100466.06;5112672;28;20047;-82
2021/09/08 05:43:44;;;;;;;11.18;5.78;;;;;;;19.14;52.64;100473.91;5104193;28;20039;-79
2021/09/08 05:46:11;;;;;;;7.72;6.35;;;;;;;19.33;52.25;100478.50;5112344;28;20035;-76
2021/09/08 05:48:38;;;;;;;15.60;6.32;;;;;;;19.54;51.85;100468.78;5111146;28;20047;-77
2021/09/08 05:51:05;;;;;;;13.07;6.40;;;;;;;19.80;51.12;100477.19;5111088;28;20036;-77
2021/09/08 05:53:31;;;;;;;18.50;7.47;;;;;;;19.66;52.05;100474.06;5103919;28;20132;-76
2021/09/08 05:55:58;;;;;;;30.83;9.25;;;;;;;19.96;51.53;100478.53;5110567;28;20468;-76
2021/09/08 05:58:25;;;;;;;15.15;7.68;;;;;;;19.84;52.15;100481.25;5111393;28;20113;-76
2021/09/08 06:00:52;;;;;;;22.98;8.27;;;;;;;20.23;51.09;100478.78;5110812;28;20453;-76
2021/09/08 06:03:19;;;;;;;21.67;6.40;;;;;;;20.46;50.35;100471.53;5104673;28;20445;-78
2021/09/08 06:05:46;;;;;;;25.65;9.32;;;;;;;20.73;49.56;100473.56;5105497;28;20494;-78
2021/09/08 06:08:13;;;;;;;11.20;6.53;;;;;;;20.93;48.97;100469.97;5114051;28;20036;-78
2021/09/08 06:10:43;;;;;;;12.75;8.90;;;;;;;20.96;48.76;100462.72;5107554;28;20054;-78
2021/09/08 06:13:10;;;;;;;16.48;10.98;;;;;;;20.91;48.99;100471.06;5114309;28;20069;-79
2021/09/08 06:15:37;;;;;;;10.77;9.68;;;;;;;20.91;49.28;100471.91;5114256;28;20047;-78
2021/09/08 06:18:05;;;;;;;13.05;10.18;;;;;;;20.59;49.50;100471.28;5113786;28;20201;-78
2021/09/08 06:20:32;;;;;;;17.23;11.38;;;;;;;20.46;50.25;100473.31;5114249;28;20044;-77
2021/09/08 06:22:59;;;;;;;10.32;8.38;;;;;;;20.57;50.48;100475.91;5113696;28;20051;-77
2021/09/08 06:25:26;;;;;;;13.35;9.38;;;;;;;20.40;50.69;100477.34;5114025;28;20448;-78
2021/09/08 06:27:53;;;;;;;14.90;11.52;;;;;;;20.53;50.02;100477.13;5113461;28;20543;-78
2021/09/08 06:30:19;;;;;;;15.20;9.65;;;;;;;20.40;49.97;100475.53;5113192;28;20448;-79
2021/09/08 06:32:46;;;;;;;13.25;9.48;;;;;;;20.64;49.55;100477.03;5113872;28;20040;-80
2021/09/08 06:35:13;;;;;;;16.63;10.05;;;;;;;20.20;50.44;100476.44;5113934;28;20055;-80
2021/09/08 06:37:43;;;;;;;16.15;10.35;;;;;;;20.09;50.70;100480.00;5113590;28;20036;-77
2021/09/08 06:40:11;;;;;;;14.55;9.93;;;;;;;20.51;49.57;100484.38;5113867;28;20123;-78
2021/09/08 06:42:38;;;;;;;15.88;10.05;;;;;;;20.73;49.06;100478.03;5114084;28;20043;-77
2021/09/08 06:45:20;;;;;;;12.57;9.70;;;;;;;20.77;49.31;100476.75;5113616;28;20043;-78
2021/09/08 06:47:47;;;;;;;14.40;9.93;;;;;;;20.83;48.90;100474.41;5113911;28;20036;-78
2021/09/08 06:50:14;;;;;;;13.73;9.77;;;;;;;20.87;48.72;100474.97;5113655;28;20047;-78
2021/09/08 06:52:40;;;;;;;12.10;10.00;;;;;;;20.99;48.66;100470.41;5114894;28;20051;-78
2021/09/08 06:55:08;;;;;;;13.27;9.30;;;;;;;20.94;48.72;100465.50;5114994;28;20031;-78
2021/09/08 06:57:36;;;;;;;10.52;8.13;;;;;;;20.98;48.25;100469.53;5113660;28;20478;-77
2021/09/08 07:00:04;;;;;;;13.25;8.57;;;;;;;21.09;48.11;100463.25;5113336;28;20076;-77
2021/09/08 07:02:31;;;;;;;9.32;8.15;;;;;;;21.19;47.86;100464.09;5113379;28;20039;-78
2021/09/08 07:04:58;;;;;;;12.02;7.68;;;;;;;21.25;47.10;100468.00;5113282;28;20036;-78
2021/09/08 07:07:24;;;;;;;11.30;7.03;;;;;;;21.30;46.82;100465.81;5113233;28;20044;-78
2021/09/08 07:09:51;;;;;;;10.15;8.57;;;;;;;21.35;46.81;100467.06;5113625;28;20080;-78
2021/09/08 07:12:18;;;;;;;10.30;7.65;;;;;;;21.19;47.12;100467.59;5113873;28;20039;-78
2021/09/08 07:14:45;;;;;;;10.55;8.40;;;;;;;21.18;46.39;100468.56;5113320;28;20036;-78
2021/09/08 07:17:11;;;;;;;26.10;9.60;;;;;;;21.32;46.09;100469.19;5113535;28;20203;-78
2021/09/08 07:19:38;;;;;;;18.55;7.88;;;;;;;21.51;46.04;100469.13;5113082;28;20043;-78
2021/09/08 07:22:07;;;;;;;19.92;8.38;;;;;;;21.63;45.55;100475.16;5112875;28;20432;-79
2021/09/08 07:24:34;;;;;;;8.63;7.50;;;;;;;21.64;45.49;100471.50;5112724;28;20110;-77
2021/09/08 07:27:01;;;;;;;13.00;7.97;;;;;;;21.53;45.11;100472.50;5112734;28;20054;-78
2021/09/08 07:29:28;;;;;;;11.00;7.40;;;;;;;21.76;44.25;100473.00;5113128;28;20138;-79
2021/09/08 07:31:55;;;;;;;14.70;7.60;;;;;;;21.70;43.96;100473.59;5112645;28;20079;-78
2021/09/08 07:34:22;;;;;;;13.38;8.10;;;;;;;21.73;44.80;100473.28;5113577;28;20047;-78
2021/09/08 07:36:48;;;;;;;9.65;6.78;;;;;;;22.05;44.51;100482.69;5113432;28;20089;-78
2021/09/08 07:39:15;;;;;;;11.80;8.65;;;;;;;22.02;44.72;100472.38;5113587;28;20401;-78
2021/09/08 07:41:43;;;;;;;14.77;8.65;;;;;;;22.29;43.79;100479.59;5115493;28;20386;-78
2021/09/08 07:44:10;;;;;;;13.57;8.40;;;;;;;22.09;45.27;100478.78;5117188;28;20083;-78
2021/09/08 07:46:36;;;;;;;14.63;9.75;;;;;;;21.67;47.28;100479.16;5118145;28;20040;-78
2021/09/08 07:49:03;;;;;;;13.05;9.20;;;;;;;21.90;46.53;100475.22;5129919;28;20059;-78
2021/09/08 07:51:30;;;;;;;16.52;9.55;;;;;;;21.48;47.28;100485.34;5117731;28;20047;-78
2021/09/08 07:53:57;;;;;;;18.23;9.70;;;;;;;21.89;47.05;100484.16;5117407;27;20096;-78
2021/09/08 07:56:24;;;;;;;20.08;11.30;;;;;;;21.62;47.64;100478.75;5117469;28;20111;-78
2021/09/08 07:58:51;;;;;;;12.60;8.68;;;;;;;21.98;46.61;100488.59;5116671;27;20498;-79
2021/09/08 08:01:17;;;;;;;10.77;9.68;;;;;;;21.91;46.96;100490.16;5116867;28;20102;-78
2021/09/08 08:03:45;;;;;;;13.88;8.32;;;;;;;21.88;44.65;100487.78;5115956;28;20039;-79
2021/09/08 08:06:12;;;;;;;15.73;9.15;;;;;;;22.02;44.85;100490.97;5116597;28;20051;-79
2021/09/08 08:08:38;;;;;;;16.90;10.15;;;;;;;21.76;45.58;100491.59;5116996;28;20075;-79
2021/09/08 08:11:07;;;;;;;16.63;9.13;;;;;;;21.80;44.58;100508.06;5116938;28;20402;-79
2021/09/08 08:13:34;;;;;;;31.65;10.93;;;;;;;21.73;45.30;100496.34;5115630;28;20148;-79
2021/09/08 08:16:00;;;;;;;15.70;8.98;;;;;;;21.89;44.33;100497.44;5116298;28;20118;-79
2021/09/08 08:18:27;;;;;;;20.95;9.25;;;;;;;22.15;43.80;100494.16;5116325;28;20044;-79
2021/09/08 08:20:55;;;;;;;11.07;9.95;;;;;;;22.01;44.28;100494.63;5114142;28;20054;-79
2021/09/08 08:23:22;;;;;;;14.80;9.80;;;;;;;22.12;43.93;100499.78;5116821;27;20043;-78
2021/09/08 08:25:49;;;;;;;22.40;10.20;;;;;;;22.25;43.33;100494.13;5116204;28;20092;-78
2021/09/08 08:28:16;;;;;;;18.60;8.63;;;;;;;22.38;43.77;100499.97;5116272;28;20047;-78
2021/09/08 08:30:42;;;;;;;18.00;9.55;;;;;;;21.96;43.79;100503.00;5116573;28;20047;-79
2021/09/08 08:33:09;;;;;;;16.58;9.35;;;;;;;22.00;43.55;100499.09;5115817;28;20124;-79
2021/09/08 08:35:36;;;;;;;11.10;7.45;;;;;;;22.21;43.17;100505.06;5116460;28;20101;-79
2021/09/08 08:38:03;;;;;;;10.63;7.15;;;;;;;22.37;42.44;100498.25;5115866;28;20039;-79
2021/09/08 08:40:31;;;;;;;11.85;7.32;;;;;;;22.28;42.31;100502.66;5116459;27;20075;-80
2021/09/08 08:43:00;;;;;;;12.95;6.60;;;;;;;22.76;40.62;100498.91;5116056;28;20047;-78
2021/09/08 08:45:28;;;;;;;14.55;7.38;;;;;;;22.98;40.28;100501.16;5116244;28;20109;-79
2021/09/08 08:47:57;;;;;;;10.93;6.88;;;;;;;22.78;40.52;100496.94;5115900;28;20069;-79
2021/09/08 08:50:26;;;;;;;13.55;8.80;;;;;;;22.78;40.58;100496.09;5116407;28;20046;-79
2021/09/08 08:52:54;;;;;;;16.52;6.88;;;;;;;22.76;40.42;100498.91;5115894;28;20112;-79
2021/09/08 08:55:24;;;;;;;10.02;7.03;;;;;;;23.12;39.23;100483.03;5115138;28;20695;-77
2021/09/08 08:57:51;;;;;;;16.15;7.30;;;;;;;23.38;38.34;100499.03;5116116;28;20044;-78
2021/09/08 09:00:19;;;;;;;11.65;7.82;;;;;;;22.98;38.59;100500.34;5115774;28;20510;-77
2021/09/08 09:02:50;;;;;;;15.18;7.38;;;;;;;23.27;38.44;100492.13;5115840;28;20039;-78
2021/09/08 09:05:28;;;;;;;12.50;7.10;;;;;;;23.29;38.22;100494.66;5115545;28;20303;-78
2021/09/08 09:07:55;;;;;;;17.83;8.02;;;;;;;23.20;38.81;100488.41;5114626;28;20558;-79
2021/09/08 09:10:23;;;;;;;17.42;7.85;;;;;;;23.61;38.32;100486.09;5115234;28;20083;-79
2021/09/08 09:12:51;;;;;;;18.17;7.85;;;;;;;23.44;38.42;100493.97;5115612;28;20035;-78
2021/09/08 09:15:19;;;;;;;15.48;7.47;;;;;;;23.56;38.74;100489.22;5115291;28;20036;-78
2021/09/08 09:17:52;;;;;;;10.98;7.13;;;;;;;23.87;37.10;100489.66;5115577;28;20039;-78
2021/09/08 09:20:22;;;;;;;10.98;6.22;;;;;;;24.12;36.09;100487.94;5115226;28;20044;-79
2021/09/08 09:22:52;;;;;;;15.88;7.85;;;;;;;24.10;36.84;100489.09;5115526;28;20044;-78
2021/09/08 09:25:33;;;;;;;15.90;8.05;;;;;;;23.55;38.17;100489.41;5115400;28;20035;-78
2021/09/08 09:28:03;;;;;;;10.60;7.32;;;;;;;23.46;38.66;100483.16;5115551;28;20093;-78
2021/09/08 09:30:33;;;;;;;10.85;7.63;;;;;;;23.27;38.42;100479.66;5115387;28;20096;-78
2021/09/08 09:33:27;;;;;;;13.02;9.00;;;;;;;23.62;38.33;100479.78;5115219;28;20439;-78
2021/09/08 09:35:54;;;;;;;9.48;7.18;;;;;;;23.95;38.28;100478.19;5107638;28;20381;-78
2021/09/08 09:38:20;;;;;;;14.68;8.00;;;;;;;24.10;37.36;100478.47;5114936;28;20071;-79
2021/09/08 09:40:49;;;;;;;11.25;7.15;;;;;;;24.13;37.85;100475.47;5115284;28;20044;-79
2021/09/08 09:43:15;;;;;;;13.77;7.38;;;;;;;24.38;37.11;100471.13;5114676;28;20035;-78
2021/09/08 09:45:45;;;;;;;9.40;7.45;;;;;;;23.93;37.52;100480.19;5114888;28;20126;-78
2021/09/08 09:48:14;;;;;;;11.38;7.80;;;;;;;24.02;37.24;100471.25;5114984;28;20081;-79
2021/09/08 09:50:46;;;;;;;11.65;7.75;;;;;;;24.14;37.02;100462.00;5114971;27;20044;-79
2021/09/08 09:53:18;;;;;;;13.65;7.32;;;;;;;24.42;37.11;100462.66;5114360;28;20046;-78
2021/09/08 09:55:45;;;;;;;8.30;7.03;;;;;;;24.37;36.92;100464.97;5114824;28;20039;-78
2021/09/08 09:58:12;;;;;;;10.30;7.47;;;;;;;24.35;35.46;100466.97;5114176;28;20542;-76
2021/09/08 10:00:39;;;;;;;8.00;6.97;;;;;;;24.84;35.23;100461.78;5115010;27;20044;-77
2021/09/08 10:03:07;;;;;;;10.57;8.18;;;;;;;24.34;36.00;100459.91;5114438;28;20043;-77
2021/09/08 10:05:34;;;;;;;10.23;7.65;;;;;;;24.26;36.28;100462.56;5114080;28;20039;-77
2021/09/08 10:08:01;;;;;;;14.95;7.63;;;;;;;24.43;36.00;100461.66;5114424;28;20047;-77
2021/09/08 10:10:32;;;;;;;11.45;7.38;;;;;;;24.70;35.58;100460.56;5113524;28;20134;-78
2021/09/08 10:13:11;;;;;;;12.40;8.25;;;;;;;24.50;35.31;100460.03;5114720;28;20047;-78
2021/09/08 10:15:38;;;;;;;8.20;6.55;;;;;;;24.66;35.69;100450.38;5113942;28;20397;-79
2021/09/08 10:18:11;;;;;;;14.50;7.20;;;;;;;24.49;34.70;100449.50;5114338;28;20091;-78
2021/09/08 10:20:38;;;;;;;7.93;7.15;;;;;;;24.80;34.85;100455.91;5114108;28;20048;-79
2021/09/08 10:23:07;;;;;;;9.23;6.65;;;;;;;24.59;35.12;100452.03;5114391;28;20110;-78
2021/09/08 10:25:34;;;;;;;8.40;6.28;;;;;;;25.04;34.44;100446.31;5113978;28;20047;-79
2021/09/08 10:28:04;;;;;;;9.05;7.32;;;;;;;24.59;34.87;100444.03;5114165;28;20036;-79
2021/09/08 10:30:37;;;;;;;11.00;7.13;;;;;;;24.64;34.37;100447.88;5098095;28;20039;-78
2021/09/08 10:33:06;;;;;;;7.53;6.72;;;;;;;25.05;35.21;100451.47;5114431;28;20079;-79
2021/09/08 10:35:41;;;;;;;11.38;8.77;;;;;;;24.88;36.04;100441.78;5114277;28;20118;-79
2021/09/08 10:38:17;;;;;;;9.45;7.85;;;;;;;25.28;34.76;100432.16;5113729;28;20044;-79
2021/09/08 10:40:47;;;;;;;8.48;6.65;;;;;;;25.67;33.98;100426.94;5093816;28;20063;-77
2021/09/08 10:43:15;;;;;;;14.55;8.07;;;;;;;25.18;35.57;100434.16;5093221;28;20036;-76
2021/09/08 10:45:50;;;;;;;7.95;7.05;;;;;;;24.80;36.74;100433.75;5093566;28;20067;-78
2021/09/08 10:48:39;;;;;;;8.45;7.60;;;;;;;25.41;35.99;100427.16;5111785;28;20036;-79
2021/09/08 10:51:10;;;;;;;9.07;7.70;;;;;;;25.15;36.17;100427.34;5113898;28;20490;-78
2021/09/08 10:53:38;;;;;;;7.93;7.13;;;;;;;25.44;35.87;100421.47;5113027;28;20035;-77
2021/09/08 10:56:06;;;;;;;8.57;7.45;;;;;;;25.07;36.33;100430.00;5111522;28;20032;-83
2021/09/08 10:58:56;;;;;;;8.10;6.47;;;;;;;25.06;35.55;100436.31;5112883;28;20051;-79
2021/09/08 11:01:24;;;;;;;7.93;7.13;;;;;;;24.85;35.62;100419.94;5112225;28;20039;-76
2021/09/08 11:03:51;;;;;;;11.25;7.00;;;;;;;24.92;35.28;100427.09;5112011;28;20040;-74
2021/09/08 11:06:35;;;;;;;9.57;6.97;;;;;;;25.47;33.46;100415.81;5111919;27;20052;-74
2021/09/08 11:09:05;;;;;;;7.95;7.07;;;;;;;25.55;33.27;100410.44;5112263;28;20407;-75
2021/09/08 11:11:32;;;;;;;9.15;6.40;;;;;;;25.55;33.61;100413.13;5106520;28;20050;-77
2021/09/08 11:13:59;;;;;;;6.70;6.00;;;;;;;25.50;33.07;100410.13;5101935;28;20039;-78
2021/09/08 11:16:28;;;;;;;11.85;7.47;;;;;;;25.63;34.12;100406.94;5106488;28;20047;-77
2021/09/08 11:18:57;;;;;;;7.07;6.32;;;;;;;25.55;34.63;100407.78;5101710;28;20491;-78
2021/09/08 11:21:29;;;;;;;9.57;6.53;;;;;;;25.73;34.49;100407.59;5104191;28;20051;-77
2021/09/08 11:24:02;;;;;;;8.13;6.75;;;;;;;25.73;34.61;100406.75;5098659;28;20044;-76